Flight Track Log - Related Links

Times and Time Zones

All times are in EDT time to prevent confusion due to time zone crossing. See the UAL4108 flight status page for this flight to view local times or setup timezone preferences in your user account.

Time Position Orientation Groundspeed Altitude Reporting Facility
EDT Latitude Longitude Course Direction KTS MPH feet Rate Location/Type
Sun 08:08:44 PM 34.7178 -92.2469 193° South 159 183 700  Level Memphis Center
Sun 08:09:21 PM 34.6883 -92.2564 195° South 184 212 2,000 2,265 Climbing Memphis Center
Sun 08:10:22 PM 34.6217 -92.2575 181° South 254 292 4,400 2,430 Climbing Memphis Center
Sun 08:11:00 PM 34.4875 -92.3933 190° South  Level Estimated
Sun 08:11:22 PM 34.5486 -92.2608 182° South 294 338 6,900  Level Memphis Center
Sun 08:11:57 PM 34.5006 -92.2572 176° South 297 342 8,600 2,250 Climbing Memphis Center
Sun 08:12:00 PM 34.3982 -92.3619 164° South  Level FlightAware Approximate
Sun 08:12:58 PM 34.4108 -92.2603 182° South 311 358 10,500  Level Memphis Center
Sun 08:13:00 PM 34.3181 -92.4191 193° South  Level Estimated
Sun 08:13:57 PM 34.3044 -92.2631 181° South 342 394 11,500  Level Memphis Center
Sun 08:14:57 PM 34.1956 -92.2708 183° South 381 438 13,500 2,100 Climbing Memphis Center
Sun 08:15:57 PM 34.0889 -92.2908 189° South 395 455 15,700 2,100 Climbing Memphis Center
Sun 08:16:57 PM 33.9967 -92.3114 190° South 389 448 17,700 1,950 Climbing Memphis Center
Sun 08:17:57 PM 33.8922 -92.3317 189° South 389 448 19,600 1,488 Climbing Memphis Center
Sun 08:19:06 PM 33.7564 -92.3572 189° South 397 457 20,900 1,302 Climbing Fort Worth Center
Sun 08:20:06 PM 33.6425 -92.3761 188° South 414 476 22,400 1,600 Climbing Fort Worth Center
Sun 08:21:06 PM 33.5264 -92.3953 188° South 419 482 24,100 1,700 Climbing Fort Worth Center
Sun 08:22:06 PM 33.4167 -92.4164 189° South 419 482 25,800 1,600 Climbing Fort Worth Center
Sun 08:23:06 PM 33.3006 -92.4356 188° South 419 482 27,300 1,100 Climbing Fort Worth Center
Sun 08:24:06 PM 33.1886 -92.4567 189° South 414 476 28,000 350 Climbing Fort Worth Center
Sun 08:25:06 PM 33.0686 -92.4808 190° South 424 488 28,000  Level Fort Worth Center
Sun 08:26:06 PM 32.9419 -92.5000 187° South 443 510 28,000  Level Fort Worth Center
Sun 08:27:06 PM 32.8175 -92.5217 188° South 459 528 28,000  Level Fort Worth Center
Sun 08:28:06 PM 32.6911 -92.5458 189° South 464 534 28,000  Level Fort Worth Center
Sun 08:29:06 PM 32.5647 -92.5675 188° South 464 534 28,000  Level Fort Worth Center
Sun 08:30:06 PM 32.4364 -92.5917 189° South 464 534 28,000  Level Fort Worth Center
Sun 08:30:56 PM 32.3303 -92.6150 191° South 461 531 28,000  Level Houston Center
Sun 08:31:58 PM 32.2044 -92.6381 189° South 458 527 28,000  Level Houston Center
Sun 08:33:00 PM 32.0814 -92.6603 189° South 450 518 28,000  Level Houston Center
Sun 08:34:01 PM 31.9625 -92.6881 191° South 440 506 28,000  Level Houston Center
Sun 08:35:03 PM 31.8711 -92.7789 220° Southwest 425 489 28,000  Level Houston Center
Sun 08:36:05 PM 31.7761 -92.8692 219° Southwest 431 496 28,000  Level Houston Center
Sun 08:37:07 PM 31.6861 -92.9550 219° Southwest 429 494 28,000  Level Houston Center
Sun 08:38:09 PM 31.5772 -93.0617 220° Southwest 428 493 28,000  Level Houston Center
Sun 08:39:11 PM 31.4858 -93.1478 219° Southwest 424 488 28,000  Level Houston Center
Sun 08:40:13 PM 31.3950 -93.2347 219° Southwest 423 487 28,000 -145 Level Houston Center
Sun 08:41:15 PM 31.3006 -93.3253 219° Southwest 413 475 27,700 -968 Descending Houston Center
Sun 08:42:17 PM 31.2236 -93.3992 219° Southwest 392 451 26,000 -1,500 Descending Houston Center
Sun 08:43:19 PM 31.1231 -93.4928 219° Southwest 388 447 24,600 -1,016 Descending Houston Center
Sun 08:44:21 PM 31.0475 -93.5669 220° Southwest 369 425 23,900 -1,415 Descending Houston Center
Sun 08:45:22 PM 30.9725 -93.6358 218° Southwest 351 404 21,700 -2,146 Descending Houston Center
Sun 08:46:24 PM 30.8983 -93.7075 220° Southwest 348 400 19,500 -1,306 Descending Houston Center
Sun 08:47:26 PM 30.8225 -93.7792 219° Southwest 352 405 19,000 -242 Descending Houston Center
Sun 08:48:28 PM 30.7442 -93.8525 219° Southwest 361 415 19,000  Level Houston Center
Sun 08:49:30 PM 30.6478 -93.9433 219° Southwest 373 429 19,000 -146 Level Houston Center
Sun 08:50:31 PM 30.5664 -94.0192 219° Southwest 377 434 18,700 -1,171 Descending Houston Center
Sun 08:51:33 PM 30.4878 -94.0928 219° Southwest 367 422 16,600 -2,032 Descending Houston Center
Sun 08:52:35 PM 30.4156 -94.1611 219° Southwest 341 392 14,500 -2,061 Descending Houston Center
Sun 08:53:12 PM 30.3656 -94.2067 218° Southwest 324 373 13,200 -1,869 Descending Houston Center
Sun 08:53:36 PM 30.3442 -94.2278 220° Southwest 334 384 12,600 -1,075 Descending Houston Center
Sun 08:54:19 PM 30.2847 -94.2828 219° Southwest 333 383 12,000 -581 Descending Houston Center
Sun 08:54:38 PM 30.2728 -94.2936 218° Southwest 330 380 12,000 98 Level Houston Center
Sun 08:55:20 PM 30.2117 -94.3506 219° Southwest 311 358 12,100  Climbing Houston Center
Sun 08:55:40 PM 30.1981 -94.3797 242° Southwest 324 373 12,000 -197 Descending Houston Center
Sun 08:56:21 PM 30.1822 -94.4561 257° West 341 392 11,900 -393 Descending Houston Center
Sun 08:56:41 PM 30.1772 -94.4856 259° West 335 386 11,600 -984 Descending Houston Center
Sun 08:57:22 PM 30.1644 -94.5550 258° West 318 366 10,900 -968 Descending Houston Center
Sun 08:57:43 PM 30.1603 -94.5844 261° West 323 372 10,600 -885 Descending Houston Center
Sun 08:58:23 PM 30.1458 -94.6664 258° West 341 392 10,000 -590 Descending Houston Center
Sun 08:58:44 PM 30.1425 -94.6900 261° West 331 381 10,000  Level Houston Center
Sun 08:59:25 PM 30.1286 -94.7700 259° West 327 376 10,000  Level Houston Center
Sun 08:59:46 PM 30.1250 -94.7936 260° West 331 381 10,000  Level Houston Center
Sun 09:00:26 PM 30.1089 -94.8739 257° West 325 374 10,000  Level Houston Center
Sun 09:00:48 PM 30.1072 -94.8944 265° West 325 374 10,000 -1,279 Level Houston Center
Sun 09:01:27 PM 30.1053 -94.9664 268° West 279 321 8,700 -1,574 Descending Houston Center
Sun 09:01:49 PM 30.1069 -94.9853 276° West 293 337 8,400 -1,770 Descending Houston Center
Sun 09:02:28 PM 30.1061 -95.0653 269° West 295 339 6,900 -1,742 Descending Houston Center
Sun 09:02:51 PM 30.1069 -95.0981 272° West 292 336 6,600 -787 Descending Houston Center
Sun 09:03:29 PM 30.1067 -95.1617 270° West 301 346 6,100 -590 Descending Houston Center
Sun 09:03:52 PM 30.1069 -95.1933 271° West 296 341 6,000 -98 Descending Houston Center
Sun 09:04:30 PM 30.1069 -95.2558 270° West 278 320 6,000  Level Houston Center
Sun 09:04:54 PM 30.1078 -95.2836 272° West 290 334 6,000  Level Houston Center
Sun 09:05:31 PM 30.1069 -95.3478 269° West 294 338 6,000  Level Houston Center
Sun 09:05:55 PM 30.1069 -95.3753 270° West 287 330 6,000 -327 Level Houston Center
Sun 09:06:26 PM 30.1061 -95.4300 269° West 272 313 5,700 -1,161 Descending Houston Center
Sun 09:06:57 PM 30.1078 -95.4650 273° West 284 327 4,800 -2,459 Descending Houston Center
Sun 09:07:27 PM 30.0883 -95.5117 244° Southwest 255 293 3,200 -2,361 Descending Houston Center
Sun 09:07:58 PM 30.0681 -95.5183 196° South 256 295 2,400 -1,548 Descending Houston Center

Login

Don't have an account? Register now (free) for customized features, flight alerts, and more!